sensor_id;sensor_type;location;lat;lon;timestamp;pressure;altitude;pressure_sealevel;temperature;humidity
69247;BME280;56358;56.328;43.992;2022-10-16T00:00:16;101913.53;;;5.10;67.56
69247;BME280;56358;56.328;43.992;2022-10-16T00:02:17;101911.84;;;5.07;67.66
69247;BME280;56358;56.328;43.992;2022-10-16T00:04:17;101890.44;;;4.83;67.56
69247;BME280;56358;56.328;43.992;2022-10-16T00:06:20;101911.06;;;5.03;67.84
69247;BME280;56358;56.328;43.992;2022-10-16T00:08:21;101828.59;;;4.50;67.84
69247;BME280;56358;56.328;43.992;2022-10-16T00:10:22;101900.88;;;4.90;68.25
69247;BME280;56358;56.328;43.992;2022-10-16T00:12:23;101909.69;;;4.92;68.50
69247;BME280;56358;56.328;43.992;2022-10-16T00:14:24;101910.59;;;4.91;68.49
69247;BME280;56358;56.328;43.992;2022-10-16T00:16:25;101902.53;;;4.94;68.55
69247;BME280;56358;56.328;43.992;2022-10-16T00:18:27;101930.63;;;5.01;68.59
69247;BME280;56358;56.328;43.992;2022-10-16T00:20:28;101924.41;;;5.02;68.50
69247;BME280;56358;56.328;43.992;2022-10-16T00:22:50;101911.13;;;5.02;68.61
69247;BME280;56358;56.328;43.992;2022-10-16T00:24:50;101892.19;;;4.84;68.73
69247;BME280;56358;56.328;43.992;2022-10-16T00:26:51;101914.91;;;4.95;68.86
69247;BME280;56358;56.328;43.992;2022-10-16T00:28:52;101927.06;;;5.02;68.64
69247;BME280;56358;56.328;43.992;2022-10-16T00:30:53;101933.34;;;4.99;68.69
69247;BME280;56358;56.328;43.992;2022-10-16T00:32:54;101922.88;;;4.95;68.98
69247;BME280;56358;56.328;43.992;2022-10-16T00:34:55;101933.41;;;4.98;68.85
69247;BME280;56358;56.328;43.992;2022-10-16T00:36:55;101926.50;;;4.92;68.61
69247;BME280;56358;56.328;43.992;2022-10-16T00:38:57;101939.72;;;4.94;68.92
69247;BME280;56358;56.328;43.992;2022-10-16T00:40:59;101941.59;;;4.92;69.24
69247;BME280;56358;56.328;43.992;2022-10-16T00:43:00;101945.16;;;4.91;69.11
69247;BME280;56358;56.328;43.992;2022-10-16T00:45:01;101931.94;;;4.87;69.11
69247;BME280;56358;56.328;43.992;2022-10-16T00:47:04;101959.50;;;4.85;69.03
69247;BME280;56358;56.328;43.992;2022-10-16T00:49:14;101923.72;;;4.67;69.32
69247;BME280;56358;56.328;43.992;2022-10-16T00:51:17;101929.75;;;4.72;69.53
69247;BME280;56358;56.328;43.992;2022-10-16T00:53:19;101942.19;;;4.72;70.24
69247;BME280;56358;56.328;43.992;2022-10-16T00:55:22;101940.38;;;4.72;70.05
69247;BME280;56358;56.328;43.992;2022-10-16T00:57:22;101939.53;;;4.72;70.11
69247;BME280;56358;56.328;43.992;2022-10-16T01:01:27;101935.19;;;4.67;70.26
69247;BME280;56358;56.328;43.992;2022-10-16T01:03:31;101924.00;;;4.58;70.15
69247;BME280;56358;56.328;43.992;2022-10-16T01:05:39;101940.63;;;4.64;70.51
69247;BME280;56358;56.328;43.992;2022-10-16T01:15:01;101941.53;;;4.63;70.83
69247;BME280;56358;56.328;43.992;2022-10-16T01:17:07;101927.69;;;4.52;71.01
69247;BME280;56358;56.328;43.992;2022-10-16T01:19:24;101953.03;;;4.64;70.82
69247;BME280;56358;56.328;43.992;2022-10-16T01:21:29;101926.84;;;4.51;70.91
69247;BME280;56358;56.328;43.992;2022-10-16T01:23:57;101949.53;;;4.62;71.27
69247;BME280;56358;56.328;43.992;2022-10-16T01:28:15;101944.22;;;4.62;71.11
69247;BME280;56358;56.328;43.992;2022-10-16T01:30:23;101866.94;;;4.11;71.13
69247;BME280;56358;56.328;43.992;2022-10-16T01:32:42;101937.16;;;4.61;71.38
69247;BME280;56358;56.328;43.992;2022-10-16T01:34:50;101950.53;;;4.58;71.07
69247;BME280;56358;56.328;43.992;2022-10-16T01:37:02;101935.72;;;4.50;71.55
69247;BME280;56358;56.328;43.992;2022-10-16T01:39:06;101853.72;;;4.08;71.24
69247;BME280;56358;56.328;43.992;2022-10-16T01:41:13;101919.84;;;4.47;71.14
69247;BME280;56358;56.328;43.992;2022-10-16T01:43:18;101808.50;;;3.81;71.33
69247;BME280;56358;56.328;43.992;2022-10-16T01:45:21;101937.41;;;4.53;71.02
69247;BME280;56358;56.328;43.992;2022-10-16T01:47:23;101953.03;;;4.64;71.39
69247;BME280;56358;56.328;43.992;2022-10-16T01:49:30;101948.72;;;4.60;71.36
69247;BME280;56358;56.328;43.992;2022-10-16T01:51:33;101948.47;;;4.67;71.34
69247;BME280;56358;56.328;43.992;2022-10-16T01:53:36;101955.50;;;4.70;71.43
69247;BME280;56358;56.328;43.992;2022-10-16T01:55:40;101952.84;;;4.70;71.52
69247;BME280;56358;56.328;43.992;2022-10-16T01:57:47;101961.53;;;4.75;71.15
69247;BME280;56358;56.328;43.992;2022-10-16T01:59:52;101960.59;;;4.78;71.51
69247;BME280;56358;56.328;43.992;2022-10-16T02:02:00;101954.22;;;4.83;71.27
69247;BME280;56358;56.328;43.992;2022-10-16T02:04:29;101959.34;;;4.90;71.24
69247;BME280;56358;56.328;43.992;2022-10-16T02:06:32;101894.09;;;4.51;70.92
69247;BME280;56358;56.328;43.992;2022-10-16T02:08:33;101907.25;;;4.56;70.92
69247;BME280;56358;56.328;43.992;2022-10-16T02:10:35;101960.09;;;4.95;70.66
69247;BME280;56358;56.328;43.992;2022-10-16T02:12:39;101973.38;;;4.95;70.60
69247;BME280;56358;56.328;43.992;2022-10-16T02:14:42;101964.50;;;4.96;70.60
69247;BME280;56358;56.328;43.992;2022-10-16T02:16:44;101953.34;;;4.83;70.87
69247;BME280;56358;56.328;43.992;2022-10-16T02:18:45;101974.19;;;4.97;71.02
69247;BME280;56358;56.328;43.992;2022-10-16T02:20:52;101972.41;;;4.97;71.05
69247;BME280;56358;56.328;43.992;2022-10-16T02:22:56;101968.06;;;4.95;71.10
69247;BME280;56358;56.328;43.992;2022-10-16T02:25:22;101967.78;;;5.04;70.64
69247;BME280;56358;56.328;43.992;2022-10-16T02:27:27;101974.78;;;5.07;70.65
69247;BME280;56358;56.328;43.992;2022-10-16T02:29:32;101907.66;;;4.70;70.37
69247;BME280;56358;56.328;43.992;2022-10-16T02:31:35;101958.97;;;5.02;70.52
69247;BME280;56358;56.328;43.992;2022-10-16T02:33:40;101977.34;;;5.10;70.63
69247;BME280;56358;56.328;43.992;2022-10-16T02:35:43;101978.19;;;5.10;70.61
69247;BME280;56358;56.328;43.992;2022-10-16T02:37:46;101902.63;;;4.62;70.59
69247;BME280;56358;56.328;43.992;2022-10-16T02:39:48;101965.91;;;5.06;70.67
69247;BME280;56358;56.328;43.992;2022-10-16T02:41:49;101973.03;;;5.06;70.72
69247;BME280;56358;56.328;43.992;2022-10-16T02:43:53;101995.09;;;5.08;70.73
69247;BME280;56358;56.328;43.992;2022-10-16T02:45:55;101977.44;;;5.07;70.44
69247;BME280;56358;56.328;43.992;2022-10-16T02:47:56;101977.50;;;5.03;70.45
69247;BME280;56358;56.328;43.992;2022-10-16T02:49:56;101983.91;;;4.98;70.74
69247;BME280;56358;56.328;43.992;2022-10-16T02:51:57;101973.22;;;4.99;70.68
69247;BME280;56358;56.328;43.992;2022-10-16T02:53:58;101978.31;;;5.07;70.68
69247;BME280;56358;56.328;43.992;2022-10-16T02:55:58;101986.22;;;5.09;70.74
69247;BME280;56358;56.328;43.992;2022-10-16T02:57:59;101982.72;;;5.08;70.76
69247;BME280;56358;56.328;43.992;2022-10-16T03:00:00;101985.16;;;5.14;70.51
69247;BME280;56358;56.328;43.992;2022-10-16T03:02:00;101965.19;;;5.01;70.68
69247;BME280;56358;56.328;43.992;2022-10-16T03:04:01;101977.28;;;5.11;70.54
69247;BME280;56358;56.328;43.992;2022-10-16T03:06:02;101983.44;;;5.13;70.63
69247;BME280;56358;56.328;43.992;2022-10-16T03:08:03;101985.13;;;5.16;70.78
69247;BME280;56358;56.328;43.992;2022-10-16T03:10:04;102004.56;;;5.18;70.38
69247;BME280;56358;56.328;43.992;2022-10-16T03:12:04;101956.50;;;4.96;70.64
69247;BME280;56358;56.328;43.992;2022-10-16T03:14:05;101989.44;;;5.20;70.51
69247;BME280;56358;56.328;43.992;2022-10-16T03:16:06;101968.53;;;5.08;70.52
69247;BME280;56358;56.328;43.992;2022-10-16T03:18:06;101988.47;;;5.23;70.42
69247;BME280;56358;56.328;43.992;2022-10-16T03:20:07;101958.91;;;5.03;70.53
69247;BME280;56358;56.328;43.992;2022-10-16T03:22:08;101985.09;;;5.17;70.75
69247;BME280;56358;56.328;43.992;2022-10-16T03:24:09;101986.63;;;5.25;70.73
69247;BME280;56358;56.328;43.992;2022-10-16T03:26:09;101998.84;;;5.30;70.50
69247;BME280;56358;56.328;43.992;2022-10-16T03:28:10;101987.34;;;5.30;70.43
69247;BME280;56358;56.328;43.992;2022-10-16T03:30:11;101958.63;;;5.13;70.34
69247;BME280;56358;56.328;43.992;2022-10-16T03:32:11;101988.13;;;5.33;70.19
69247;BME280;56358;56.328;43.992;2022-10-16T03:34:12;101983.84;;;5.29;70.14
69247;BME280;56358;56.328;43.992;2022-10-16T03:36:13;101972.47;;;5.24;70.08
69247;BME280;56358;56.328;43.992;2022-10-16T03:38:13;102006.59;;;5.38;69.84
69247;BME280;56358;56.328;43.992;2022-10-16T03:40:14;101993.25;;;5.40;69.88
69247;BME280;56358;56.328;43.992;2022-10-16T03:42:15;102003.88;;;5.40;69.84
69247;BME280;56358;56.328;43.992;2022-10-16T03:44:16;101987.22;;;5.34;70.13
69247;BME280;56358;56.328;43.992;2022-10-16T03:46:16;101998.63;;;5.38;69.98
69247;BME280;56358;56.328;43.992;2022-10-16T03:48:18;102003.13;;;5.36;69.95
69247;BME280;56358;56.328;43.992;2022-10-16T03:50:19;102007.56;;;5.35;70.08
69247;BME280;56358;56.328;43.992;2022-10-16T03:52:19;102004.03;;;5.35;70.01
69247;BME280;56358;56.328;43.992;2022-10-16T03:54:20;102007.50;;;5.37;70.23
69247;BME280;56358;56.328;43.992;2022-10-16T03:56:22;102021.63;;;5.39;70.24
69247;BME280;56358;56.328;43.992;2022-10-16T03:58:23;102012.75;;;5.40;70.14
69247;BME280;56358;56.328;43.992;2022-10-16T04:00:23;101951.91;;;5.01;69.74
69247;BME280;56358;56.328;43.992;2022-10-16T04:02:24;101943.00;;;5.02;69.90
69247;BME280;56358;56.328;43.992;2022-10-16T04:04:25;102010.03;;;5.42;70.00
69247;BME280;56358;56.328;43.992;2022-10-16T04:06:25;102016.03;;;5.48;70.09
69247;BME280;56358;56.328;43.992;2022-10-16T04:08:26;102015.25;;;5.45;69.89
69247;BME280;56358;56.328;43.992;2022-10-16T04:10:27;102021.28;;;5.50;69.89
69247;BME280;56358;56.328;43.992;2022-10-16T04:12:27;101959.47;;;5.15;69.93
69247;BME280;56358;56.328;43.992;2022-10-16T04:14:28;102015.91;;;5.51;69.78
69247;BME280;56358;56.328;43.992;2022-10-16T04:16:29;102026.47;;;5.54;69.80
69247;BME280;56358;56.328;43.992;2022-10-16T04:18:29;102022.88;;;5.56;69.79
69247;BME280;56358;56.328;43.992;2022-10-16T04:20:30;101959.47;;;5.15;69.59
69247;BME280;56358;56.328;43.992;2022-10-16T04:22:31;102032.72;;;5.53;69.77
69247;BME280;56358;56.328;43.992;2022-10-16T04:24:31;102023.78;;;5.56;69.31
69247;BME280;56358;56.328;43.992;2022-10-16T04:26:32;102010.75;;;5.47;69.40
69247;BME280;56358;56.328;43.992;2022-10-16T04:28:33;102029.84;;;5.60;69.55
69247;BME280;56358;56.328;43.992;2022-10-16T04:30:33;101880.09;;;4.74;69.20
69247;BME280;56358;56.328;43.992;2022-10-16T04:32:34;102014.94;;;5.54;69.59
69247;BME280;56358;56.328;43.992;2022-10-16T04:34:35;102015.00;;;5.52;69.65
69247;BME280;56358;56.328;43.992;2022-10-16T04:36:36;102025.75;;;5.49;69.52
69247;BME280;56358;56.328;43.992;2022-10-16T04:38:37;102005.56;;;5.42;69.35
69247;BME280;56358;56.328;43.992;2022-10-16T04:40:41;101987.41;;;5.28;69.36
69247;BME280;56358;56.328;43.992;2022-10-16T04:42:42;102024.00;;;5.48;69.55
69247;BME280;56358;56.328;43.992;2022-10-16T04:44:43;101971.78;;;5.17;69.45
69247;BME280;56358;56.328;43.992;2022-10-16T04:46:43;101971.84;;;5.16;69.58
69247;BME280;56358;56.328;43.992;2022-10-16T04:48:44;101944.59;;;5.09;69.49
69247;BME280;56358;56.328;43.992;2022-10-16T04:50:45;102021.25;;;5.51;69.49
69247;BME280;56358;56.328;43.992;2022-10-16T04:52:46;102019.38;;;5.55;69.66
69247;BME280;56358;56.328;43.992;2022-10-16T04:54:46;102010.94;;;5.41;69.49
69247;BME280;56358;56.328;43.992;2022-10-16T04:56:47;101940.28;;;5.05;69.62
69247;BME280;56358;56.328;43.992;2022-10-16T04:58:50;102010.84;;;5.44;69.58
69247;BME280;56358;56.328;43.992;2022-10-16T05:00:51;102033.34;;;5.62;70.21
69247;BME280;56358;56.328;43.992;2022-10-16T05:02:51;102031.53;;;5.62;70.03
69247;BME280;56358;56.328;43.992;2022-10-16T05:04:52;102053.75;;;5.61;69.72
69247;BME280;56358;56.328;43.992;2022-10-16T05:06:53;102057.34;;;5.60;69.66
69247;BME280;56358;56.328;43.992;2022-10-16T05:08:53;101980.84;;;5.10;69.73
69247;BME280;56358;56.328;43.992;2022-10-16T05:10:54;102053.03;;;5.56;70.62
69247;BME280;56358;56.328;43.992;2022-10-16T05:12:54;102056.72;;;5.52;71.21
69247;BME280;56358;56.328;43.992;2022-10-16T05:14:55;102027.91;;;5.36;71.25
69247;BME280;56358;56.328;43.992;2022-10-16T05:16:59;102060.38;;;5.48;71.11
69247;BME280;56358;56.328;43.992;2022-10-16T05:18:59;102051.63;;;5.44;71.17
69247;BME280;56358;56.328;43.992;2022-10-16T05:21:00;102034.34;;;5.29;71.15
69247;BME280;56358;56.328;43.992;2022-10-16T05:23:01;102060.56;;;5.42;71.14
69247;BME280;56358;56.328;43.992;2022-10-16T05:25:01;102057.19;;;5.36;70.91
69247;BME280;56358;56.328;43.992;2022-10-16T05:27:03;102059.72;;;5.40;70.88
69247;BME280;56358;56.328;43.992;2022-10-16T05:29:04;102059.59;;;5.44;70.58
69247;BME280;56358;56.328;43.992;2022-10-16T05:31:05;102059.78;;;5.38;70.63
69247;BME280;56358;56.328;43.992;2022-10-16T05:33:07;102063.00;;;5.49;70.36
69247;BME280;56358;56.328;43.992;2022-10-16T05:35:08;102050.75;;;5.44;70.31
69247;BME280;56358;56.328;43.992;2022-10-16T05:37:08;102040.09;;;5.44;70.32
69247;BME280;56358;56.328;43.992;2022-10-16T05:39:09;102002.72;;;5.20;70.20
69247;BME280;56358;56.328;43.992;2022-10-16T05:41:10;102047.13;;;5.46;69.96
69247;BME280;56358;56.328;43.992;2022-10-16T05:43:10;102058.16;;;5.62;69.71
69247;BME280;56358;56.328;43.992;2022-10-16T05:45:11;102051.78;;;5.66;69.58
69247;BME280;56358;56.328;43.992;2022-10-16T05:47:12;102043.78;;;5.68;69.40
69247;BME280;56358;56.328;43.992;2022-10-16T05:49:14;102046.03;;;5.80;69.39
69247;BME280;56358;56.328;43.992;2022-10-16T05:51:15;102052.91;;;5.87;69.37
69247;BME280;56358;56.328;43.992;2022-10-16T05:53:15;102053.47;;;5.99;68.84
69247;BME280;56358;56.328;43.992;2022-10-16T05:55:16;102062.13;;;6.04;68.80
69247;BME280;56358;56.328;43.992;2022-10-16T05:57:17;102076.88;;;6.14;68.26
69247;BME280;56358;56.328;43.992;2022-10-16T05:59:17;102073.13;;;6.20;68.03
69247;BME280;56358;56.328;43.992;2022-10-16T06:01:18;102073.00;;;6.25;68.00
69247;BME280;56358;56.328;43.992;2022-10-16T06:03:21;102059.88;;;6.18;67.90
69247;BME280;56358;56.328;43.992;2022-10-16T06:05:22;102018.03;;;5.95;67.69
69247;BME280;56358;56.328;43.992;2022-10-16T06:07:23;102087.69;;;6.36;67.69
69247;BME280;56358;56.328;43.992;2022-10-16T06:09:23;102082.25;;;6.40;67.62
69247;BME280;56358;56.328;43.992;2022-10-16T06:11:26;101996.47;;;6.04;67.42
69247;BME280;56358;56.328;43.992;2022-10-16T06:13:27;102067.41;;;6.58;67.43
69247;BME280;56358;56.328;43.992;2022-10-16T06:15:28;102025.53;;;6.36;67.26
69247;BME280;56358;56.328;43.992;2022-10-16T06:17:29;102071.16;;;6.77;67.05
69247;BME280;56358;56.328;43.992;2022-10-16T06:19:30;102050.69;;;6.78;66.64
69247;BME280;56358;56.328;43.992;2022-10-16T06:21:32;101974.00;;;6.37;66.34
69247;BME280;56358;56.328;43.992;2022-10-16T06:23:32;102066.88;;;6.97;66.32
69247;BME280;56358;56.328;43.992;2022-10-16T06:25:33;102077.16;;;7.08;65.70
69247;BME280;56358;56.328;43.992;2022-10-16T06:27:34;102070.66;;;7.15;65.64
69247;BME280;56358;56.328;43.992;2022-10-16T06:29:34;102077.53;;;7.20;65.52
69247;BME280;56358;56.328;43.992;2022-10-16T06:31:35;102077.44;;;7.24;64.94
69247;BME280;56358;56.328;43.992;2022-10-16T06:33:36;102061.78;;;7.14;65.22
69247;BME280;56358;56.328;43.992;2022-10-16T06:35:37;102081.53;;;7.32;64.88
69247;BME280;56358;56.328;43.992;2022-10-16T06:37:38;102076.09;;;7.35;65.13
69247;BME280;56358;56.328;43.992;2022-10-16T06:39:39;102072.31;;;7.41;64.69
69247;BME280;56358;56.328;43.992;2022-10-16T06:41:39;102070.50;;;7.42;64.65
69247;BME280;56358;56.328;43.992;2022-10-16T06:43:40;102065.31;;;7.38;64.41
69247;BME280;56358;56.328;43.992;2022-10-16T06:45:41;102065.94;;;7.45;64.54
69247;BME280;56358;56.328;43.992;2022-10-16T06:47:41;102066.41;;;7.55;64.79
69247;BME280;56358;56.328;43.992;2022-10-16T06:49:42;102067.13;;;7.60;64.39
69247;BME280;56358;56.328;43.992;2022-10-16T06:51:42;102053.28;;;7.50;63.89
69247;BME280;56358;56.328;43.992;2022-10-16T06:53:51;102067.94;;;7.62;63.56
69247;BME280;56358;56.328;43.992;2022-10-16T06:55:52;101985.16;;;7.18;63.66
69247;BME280;56358;56.328;43.992;2022-10-16T06:57:53;102069.47;;;7.68;63.89
69247;BME280;56358;56.328;43.992;2022-10-16T06:59:53;102056.22;;;7.65;64.02
69247;BME280;56358;56.328;43.992;2022-10-16T07:01:54;102072.84;;;7.73;63.50
69247;BME280;56358;56.328;43.992;2022-10-16T07:03:55;102039.56;;;7.60;63.49
69247;BME280;56358;56.328;43.992;2022-10-16T07:05:55;102072.63;;;7.78;63.11
69247;BME280;56358;56.328;43.992;2022-10-16T07:07:56;102064.75;;;7.75;63.08
69247;BME280;56358;56.328;43.992;2022-10-16T07:09:57;102028.81;;;7.61;63.14
69247;BME280;56358;56.328;43.992;2022-10-16T07:11:57;102081.13;;;7.87;62.78
69247;BME280;56358;56.328;43.992;2022-10-16T07:13:58;102067.66;;;7.91;62.55
69247;BME280;56358;56.328;43.992;2022-10-16T07:16:14;102058.75;;;7.92;62.15
69247;BME280;56358;56.328;43.992;2022-10-16T07:18:15;102069.06;;;7.99;61.88
69247;BME280;56358;56.328;43.992;2022-10-16T07:20:16;102074.34;;;8.01;61.81
69247;BME280;56358;56.328;43.992;2022-10-16T07:22:17;102076.22;;;7.99;61.81
69247;BME280;56358;56.328;43.992;2022-10-16T07:24:17;102071.94;;;7.95;61.53
69247;BME280;56358;56.328;43.992;2022-10-16T07:26:18;102087.16;;;7.93;61.81
69247;BME280;56358;56.328;43.992;2022-10-16T07:28:19;102012.56;;;7.45;61.72
69247;BME280;56358;56.328;43.992;2022-10-16T07:30:19;102069.09;;;7.77;62.01
69247;BME280;56358;56.328;43.992;2022-10-16T07:32:20;102086.13;;;7.75;62.24
69247;BME280;56358;56.328;43.992;2022-10-16T07:34:21;102084.25;;;7.77;62.33
69247;BME280;56358;56.328;43.992;2022-10-16T07:36:22;102084.25;;;7.77;62.20
69247;BME280;56358;56.328;43.992;2022-10-16T07:38:22;102095.97;;;7.72;62.97
69247;BME280;56358;56.328;43.992;2022-10-16T07:40:23;102091.41;;;7.76;62.71
69247;BME280;56358;56.328;43.992;2022-10-16T07:42:24;102087.66;;;7.80;63.02
69247;BME280;56358;56.328;43.992;2022-10-16T07:44:24;102085.13;;;7.77;62.65
69247;BME280;56358;56.328;43.992;2022-10-16T07:46:25;102080.66;;;7.78;62.77
69247;BME280;56358;56.328;43.992;2022-10-16T07:48:28;102078.03;;;7.76;62.57
69247;BME280;56358;56.328;43.992;2022-10-16T07:50:29;102085.00;;;7.80;62.73
69247;BME280;56358;56.328;43.992;2022-10-16T07:52:29;102090.25;;;7.82;62.93
69247;BME280;56358;56.328;43.992;2022-10-16T07:54:30;102090.34;;;7.80;62.26
69247;BME280;56358;56.328;43.992;2022-10-16T07:56:32;102077.66;;;7.85;62.21
69247;BME280;56358;56.328;43.992;2022-10-16T07:58:34;102070.72;;;7.81;62.60
69247;BME280;56358;56.328;43.992;2022-10-16T08:00:37;102089.81;;;7.93;62.49
69247;BME280;56358;56.328;43.992;2022-10-16T08:02:38;102074.88;;;7.88;62.26
69247;BME280;56358;56.328;43.992;2022-10-16T08:04:38;102082.38;;;8.01;62.28
69247;BME280;56358;56.328;43.992;2022-10-16T08:06:40;102092.19;;;8.00;62.12
69247;BME280;56358;56.328;43.992;2022-10-16T08:08:41;102071.19;;;7.91;62.07
69247;BME280;56358;56.328;43.992;2022-10-16T08:10:42;102071.75;;;7.99;62.35
69247;BME280;56358;56.328;43.992;2022-10-16T08:12:42;102081.94;;;8.12;62.51
69247;BME280;56358;56.328;43.992;2022-10-16T08:14:43;102086.16;;;8.17;62.37
69247;BME280;56358;56.328;43.992;2022-10-16T08:16:43;102093.03;;;8.23;62.23
69247;BME280;56358;56.328;43.992;2022-10-16T08:18:44;102083.88;;;8.29;61.99
69247;BME280;56358;56.328;43.992;2022-10-16T08:20:45;102079.53;;;8.26;62.08
69247;BME280;56358;56.328;43.992;2022-10-16T08:22:45;102086.31;;;8.35;62.16
69247;BME280;56358;56.328;43.992;2022-10-16T08:24:46;102070.44;;;8.30;62.19
69247;BME280;56358;56.328;43.992;2022-10-16T08:26:47;102086.75;;;8.45;61.83
69247;BME280;56358;56.328;43.992;2022-10-16T08:28:49;102094.75;;;8.46;61.88
69247;BME280;56358;56.328;43.992;2022-10-16T08:30:51;102069.53;;;8.31;61.66
69247;BME280;56358;56.328;43.992;2022-10-16T08:32:54;102084.88;;;8.48;61.87
69247;BME280;56358;56.328;43.992;2022-10-16T08:34:55;102045.69;;;8.27;61.10
69247;BME280;56358;56.328;43.992;2022-10-16T08:36:55;101999.31;;;8.07;61.27
69247;BME280;56358;56.328;43.992;2022-10-16T08:38:56;102079.44;;;8.70;60.85
69247;BME280;56358;56.328;43.992;2022-10-16T08:47:26;102081.53;;;9.22;59.84
69247;BME280;56358;56.328;43.992;2022-10-16T08:49:33;102056.25;;;9.30;59.55
69247;BME280;56358;56.328;43.992;2022-10-16T08:51:36;101996.34;;;9.13;58.98
69247;BME280;56358;56.328;43.992;2022-10-16T08:53:48;102032.69;;;9.55;58.39
69247;BME280;56358;56.328;43.992;2022-10-16T08:55:51;102059.06;;;9.82;58.07
69247;BME280;56358;56.328;43.992;2022-10-16T08:57:52;102078.00;;;9.97;57.91
69247;BME280;56358;56.328;43.992;2022-10-16T08:59:53;102030.81;;;9.75;57.84
69247;BME280;56358;56.328;43.992;2022-10-16T09:02:00;102059.00;;;10.01;57.44
69247;BME280;56358;56.328;43.992;2022-10-16T09:13:48;102078.50;;;10.22;56.46
69247;BME280;56358;56.328;43.992;2022-10-16T09:18:09;102009.66;;;10.05;56.56
69247;BME280;56358;56.328;43.992;2022-10-16T09:22:32;102051.31;;;10.30;55.90
69247;BME280;56358;56.328;43.992;2022-10-16T09:24:33;102075.03;;;10.38;55.71
69247;BME280;56358;56.328;43.992;2022-10-16T09:26:34;102066.41;;;10.31;56.30
69247;BME280;56358;56.328;43.992;2022-10-16T09:28:35;102070.66;;;10.37;56.17
69247;BME280;56358;56.328;43.992;2022-10-16T09:30:35;102068.03;;;10.35;56.00
69247;BME280;56358;56.328;43.992;2022-10-16T09:32:38;102079.63;;;10.36;56.21
69247;BME280;56358;56.328;43.992;2022-10-16T09:34:54;102060.28;;;10.29;56.29
69247;BME280;56358;56.328;43.992;2022-10-16T09:36:57;102066.13;;;10.37;56.28
69247;BME280;56358;56.328;43.992;2022-10-16T09:39:08;102070.91;;;10.31;55.82
69247;BME280;56358;56.328;43.992;2022-10-16T09:41:22;102076.44;;;10.28;56.51
69247;BME280;56358;56.328;43.992;2022-10-16T09:45:36;102070.13;;;10.29;55.91
69247;BME280;56358;56.328;43.992;2022-10-16T09:47:39;102054.66;;;10.16;55.83
69247;BME280;56358;56.328;43.992;2022-10-16T09:49:55;102071.16;;;10.26;56.16
69247;BME280;56358;56.328;43.992;2022-10-16T09:56:22;102046.72;;;10.15;56.44
69247;BME280;56358;56.328;43.992;2022-10-16T09:58:23;102071.16;;;10.26;56.50
69247;BME280;56358;56.328;43.992;2022-10-16T10:00:25;102074.53;;;10.30;56.70
69247;BME280;56358;56.328;43.992;2022-10-16T10:02:35;102070.84;;;10.32;56.83
69247;BME280;56358;56.328;43.992;2022-10-16T10:04:56;102057.06;;;10.22;56.84
69247;BME280;56358;56.328;43.992;2022-10-16T10:06:57;102070.19;;;10.27;56.80
69247;BME280;56358;56.328;43.992;2022-10-16T10:09:25;102063.03;;;10.28;56.75
69247;BME280;56358;56.328;43.992;2022-10-16T10:13:41;102062.91;;;10.48;55.68
69247;BME280;56358;56.328;43.992;2022-10-16T10:15:41;102045.69;;;10.52;55.78
69247;BME280;56358;56.328;43.992;2022-10-16T10:17:56;102065.41;;;10.69;55.11
69247;BME280;56358;56.328;43.992;2022-10-16T10:20:45;102056.53;;;10.84;54.55
69247;BME280;56358;56.328;43.992;2022-10-16T10:22:42;102056.13;;;10.92;54.49
69247;BME280;56358;56.328;43.992;2022-10-16T10:27:13;102055.78;;;11.14;54.19
69247;BME280;56358;56.328;43.992;2022-10-16T10:34:39;102042.53;;;12.07;50.54
69247;BME280;56358;56.328;43.992;2022-10-16T10:36:47;102055.94;;;12.37;49.31
69247;BME280;56358;56.328;43.992;2022-10-16T10:39:03;102059.94;;;12.89;49.32
69247;BME280;56358;56.328;43.992;2022-10-16T10:46:28;102052.44;;;14.46;44.15
69247;BME280;56358;56.328;43.992;2022-10-16T10:51:04;101942.50;;;13.70;44.85
69247;BME280;56358;56.328;43.992;2022-10-16T10:53:33;102046.25;;;14.18;45.92
69247;BME280;56358;56.328;43.992;2022-10-16T10:55:44;102047.97;;;14.19;45.98
69247;BME280;56358;56.328;43.992;2022-10-16T11:00:28;102049.72;;;14.20;45.36
69247;BME280;56358;56.328;43.992;2022-10-16T11:05:23;102041.19;;;14.26;43.98
69247;BME280;56358;56.328;43.992;2022-10-16T11:07:30;102044.75;;;14.39;43.85
69247;BME280;56358;56.328;43.992;2022-10-16T11:09:43;101942.22;;;14.01;44.02
69247;BME280;56358;56.328;43.992;2022-10-16T11:11:52;102056.03;;;14.72;43.83
69247;BME280;56358;56.328;43.992;2022-10-16T11:13:59;102054.84;;;14.76;44.36
69247;BME280;56358;56.328;43.992;2022-10-16T11:16:11;102041.75;;;14.57;43.59
69247;BME280;56358;56.328;43.992;2022-10-16T11:20:57;102040.97;;;14.42;42.83
69247;BME280;56358;56.328;43.992;2022-10-16T11:23:05;102049.00;;;14.95;42.26
69247;BME280;56358;56.328;43.992;2022-10-16T11:25:23;102056.00;;;15.11;41.76
69247;BME280;56358;56.328;43.992;2022-10-16T11:27:47;102056.94;;;15.35;39.76
69247;BME280;56358;56.328;43.992;2022-10-16T11:29:58;102055.16;;;15.47;39.69
69247;BME280;56358;56.328;43.992;2022-10-16T11:32:10;102013.66;;;15.11;40.26
69247;BME280;56358;56.328;43.992;2022-10-16T11:34:28;102063.63;;;15.30;40.60
69247;BME280;56358;56.328;43.992;2022-10-16T11:40:53;102012.63;;;15.25;39.77
69247;BME280;56358;56.328;43.992;2022-10-16T11:43:34;102051.25;;;15.01;40.00
69247;BME280;56358;56.328;43.992;2022-10-16T11:45:50;102049.41;;;14.50;41.28
69247;BME280;56358;56.328;43.992;2022-10-16T11:52:42;102067.97;;;13.47;43.58
69247;BME280;56358;56.328;43.992;2022-10-16T11:54:49;102000.34;;;12.96;44.18
69247;BME280;56358;56.328;43.992;2022-10-16T11:56:57;102065.41;;;13.17;44.59